Time;durP1;ratioP1;P1;durP2;ratioP2;P2;SDS_P1;SDS_P2;PMS_P1;PMS_P2;Temp;Humidity;BMP_temperature;BMP_pressure;BME280_temperature;BME280_humidity;BME280_pressure;Samples;Min_cycle;Max_cycle;Signal;HPM_P1;HPM_P2
2022/05/30 00:01:18;;;;;;;;;;;;;;;20.13;49.88;101513.00;6138384;23;19913;-75
2022/05/30 00:03:44;;;;;;;;;;;;;;;20.13;49.72;101512.13;6132750;23;19913;-80
2022/05/30 00:06:12;;;;;;;;;;;;;;;20.13;49.75;101515.59;6158175;23;20390;-81
2022/05/30 00:08:37;;;;;;;;;;;;;;;20.14;49.66;101513.84;6132086;23;19915;-80
2022/05/30 00:11:03;;;;;;;;;;;;;;;20.13;49.76;101512.13;6132156;23;19913;-80
2022/05/30 00:13:28;;;;;;;;;;;;;;;20.13;49.63;101504.28;6132087;23;19913;-80
2022/05/30 00:15:53;;;;;;;;;;;;;;;20.13;49.76;101509.53;6157910;23;19912;-80
2022/05/30 00:18:19;;;;;;;;;;;;;;;20.13;49.64;101504.28;6107185;23;20273;-81
2022/05/30 00:20:45;;;;;;;;;;;;;;;20.12;49.64;101498.22;6157759;23;19964;-80
2022/05/30 00:23:12;;;;;;;;;;;;;;;20.11;49.79;101501.69;6132040;23;20329;-80
2022/05/30 00:25:41;;;;;;;;;;;;;;;20.13;49.54;101493.84;6131723;23;19913;-80
2022/05/30 00:28:07;;;;;;;;;;;;;;;20.12;49.62;101492.09;6131417;23;19960;-80
2022/05/30 00:30:32;;;;;;;;;;;;;;;20.11;49.60;101493.84;6157519;23;19909;-80
2022/05/30 00:32:57;;;;;;;;;;;;;;;20.11;49.63;101487.75;6157424;23;19963;-81
2022/05/30 00:35:23;;;;;;;;;;;;;;;20.10;49.69;101484.28;6107410;23;19919;-81
2022/05/30 00:37:48;;;;;;;;;;;;;;;20.10;49.54;101484.28;6106990;23;19964;-80
2022/05/30 00:40:13;;;;;;;;;;;;;;;20.10;49.43;101479.06;6131458;23;19917;-81
2022/05/30 00:42:39;;;;;;;;;;;;;;;20.10;49.59;101478.22;6107123;23;19912;-82
2022/05/30 00:45:04;;;;;;;;;;;;;;;20.10;49.54;101470.38;6107544;23;20365;-82
2022/05/30 00:47:30;;;;;;;;;;;;;;;20.09;49.35;101471.22;6159397;23;19912;-82
2022/05/30 00:49:56;;;;;;;;;;;;;;;20.09;49.50;101471.22;6134125;23;19913;-82
2022/05/30 00:52:25;;;;;;;;;;;;;;;20.10;49.41;101473.84;6133196;23;19913;-83
2022/05/30 00:55:10;;;;;;;;;;;;;;;20.10;49.58;101467.75;6133619;23;19908;-84
2022/05/30 00:57:37;;;;;;;;;;;;;;;20.10;49.43;101468.63;6158801;23;19924;-84
2022/05/30 01:00:10;;;;;;;;;;;;;;;20.09;49.35;101466.88;6134598;23;19916;-83
2022/05/30 01:02:37;;;;;;;;;;;;;;;20.09;49.48;101476.47;6132787;23;19909;-83
2022/05/30 01:07:47;;;;;;;;;;;;;;;20.09;49.41;101471.22;6158313;23;19951;-83
2022/05/30 01:10:14;;;;;;;;;;;;;;;20.08;49.45;101466.91;6131265;23;19909;-80
2022/05/30 01:12:42;;;;;;;;;;;;;;;20.08;49.31;101472.13;6131607;23;19916;-81
2022/05/30 01:15:08;;;;;;;;;;;;;;;20.07;49.57;101475.59;6131292;23;19908;-80
2022/05/30 01:17:35;;;;;;;;;;;;;;;20.07;49.40;101479.06;6131369;23;19908;-81
2022/05/30 01:20:08;;;;;;;;;;;;;;;20.07;49.29;101470.38;6157291;23;19912;-81
2022/05/30 01:22:33;;;;;;;;;;;;;;;20.07;49.37;101473.84;6131281;23;19908;-81
2022/05/30 01:25:01;;;;;;;;;;;;;;;20.07;49.33;101478.22;6130910;23;19991;-80
2022/05/30 01:27:45;;;;;;;;;;;;;;;20.06;49.21;101471.28;6130935;23;19908;-81
2022/05/30 01:30:12;;;;;;;;;;;;;;;20.05;49.29;101467.78;6131167;23;19908;-80
2022/05/30 01:32:38;;;;;;;;;;;;;;;20.06;49.16;101471.28;6157329;23;20309;-80
2022/05/30 01:35:04;;;;;;;;;;;;;;;20.05;49.28;101462.53;6157451;23;19909;-80
2022/05/30 01:37:29;;;;;;;;;;;;;;;20.04;49.18;101457.34;6106500;23;19919;-80
2022/05/30 01:39:54;;;;;;;;;;;;;;;20.05;49.30;101461.69;6157143;23;19987;-80
2022/05/30 01:42:19;;;;;;;;;;;;;;;20.05;49.27;101461.69;6106374;23;20340;-80
2022/05/30 01:44:45;;;;;;;;;;;;;;;20.04;49.29;101458.22;6130688;23;19943;-80
2022/05/30 01:47:11;;;;;;;;;;;;;;;20.03;49.33;101466.91;6130994;23;19948;-80
2022/05/30 01:49:36;;;;;;;;;;;;;;;20.04;49.39;101462.59;6130923;23;19909;-80
2022/05/30 01:52:02;;;;;;;;;;;;;;;20.04;49.22;101457.34;6131102;23;20313;-81
2022/05/30 01:54:27;;;;;;;;;;;;;;;20.03;49.14;101455.63;6130724;23;19955;-80
2022/05/30 01:56:52;;;;;;;;;;;;;;;20.02;49.29;101461.72;6130671;23;19958;-80
2022/05/30 01:59:18;;;;;;;;;;;;;;;20.02;49.29;101453.91;6130658;23;19928;-81
2022/05/30 02:01:45;;;;;;;;;;;;;;;20.03;49.29;101458.22;6106214;23;20324;-80
2022/05/30 02:04:11;;;;;;;;;;;;;;;20.02;49.31;101452.13;6130690;23;19909;-80
2022/05/30 02:06:36;;;;;;;;;;;;;;;20.03;49.42;101450.38;6130948;23;19920;-80
2022/05/30 02:09:02;;;;;;;;;;;;;;;20.02;49.17;101441.69;6156919;23;20215;-80
2022/05/30 02:11:27;;;;;;;;;;;;;;;20.01;49.47;101445.19;6156837;23;19939;-80
2022/05/30 02:13:52;;;;;;;;;;;;;;;20.01;49.40;101449.53;6131152;23;19913;-80
2022/05/30 02:19:15;;;;;;;;;;;;;;;20.02;49.29;101448.66;6089580;23;19999;-80
2022/05/30 02:21:41;;;;;;;;;;;;;;;20.00;49.20;101448.69;6106269;23;19996;-79
2022/05/30 02:24:06;;;;;;;;;;;;;;;20.01;49.20;101447.81;6106243;23;19991;-79
2022/05/30 02:26:33;;;;;;;;;;;;;;;20.00;49.11;101448.69;6130707;23;20018;-80
2022/05/30 02:28:58;;;;;;;;;;;;;;;20.01;49.34;101446.91;6130514;23;19908;-79
2022/05/30 02:31:23;;;;;;;;;;;;;;;20.01;49.28;101449.53;6106176;23;19913;-81
2022/05/30 02:36:39;;;;;;;;;;;;;;;19.99;49.20;101446.06;6134826;23;19958;-81
2022/05/30 02:39:04;;;;;;;;;;;;;;;19.99;49.29;101446.97;6130530;23;20233;-80
2022/05/30 02:41:30;;;;;;;;;;;;;;;19.98;49.20;101439.97;6130313;23;19983;-80
2022/05/30 02:43:55;;;;;;;;;;;;;;;19.99;49.35;101443.47;6130396;23;19908;-80
2022/05/30 02:46:20;;;;;;;;;;;;;;;19.97;49.35;101435.66;6130658;23;19920;-80
2022/05/30 02:48:46;;;;;;;;;;;;;;;19.98;49.26;101437.38;6106172;23;19913;-80
2022/05/30 02:51:11;;;;;;;;;;;;;;;19.98;49.34;101436.50;6106371;23;19919;-80
2022/05/30 02:53:36;;;;;;;;;;;;;;;19.98;49.19;101439.13;6130469;23;19943;-80
2022/05/30 02:56:02;;;;;;;;;;;;;;;19.98;49.40;101433.91;6130725;23;19912;-80
2022/05/30 02:58:28;;;;;;;;;;;;;;;19.97;49.30;101440.88;6132344;23;19909;-80
2022/05/30 03:00:53;;;;;;;;;;;;;;;19.97;49.25;101437.38;6132215;23;19919;-81
2022/05/30 03:03:19;;;;;;;;;;;;;;;19.97;49.35;101434.78;6108010;23;19912;-82
2022/05/30 03:05:44;;;;;;;;;;;;;;;19.95;49.23;101437.41;6132301;23;19908;-80
2022/05/30 03:08:09;;;;;;;;;;;;;;;19.96;49.22;101438.28;6132367;23;20369;-81
2022/05/30 03:10:35;;;;;;;;;;;;;;;19.96;49.33;101439.13;6132521;23;19908;-82
2022/05/30 03:13:01;;;;;;;;;;;;;;;19.96;49.21;101433.06;6132496;23;20344;-80
2022/05/30 03:15:26;;;;;;;;;;;;;;;19.95;49.16;101442.63;6132225;23;20391;-80
2022/05/30 03:17:51;;;;;;;;;;;;;;;19.96;49.22;101440.88;6132436;23;19920;-80
2022/05/30 03:20:19;;;;;;;;;;;;;;;19.96;49.30;101438.28;6132362;23;19917;-81
2022/05/30 03:22:45;;;;;;;;;;;;;;;19.94;49.46;101431.31;6132462;23;19917;-81
2022/05/30 03:25:11;;;;;;;;;;;;;;;19.95;49.21;101434.81;6132387;23;20318;-82
2022/05/30 03:27:36;;;;;;;;;;;;;;;19.95;49.19;101432.19;6158702;23;19964;-82
2022/05/30 03:30:02;;;;;;;;;;;;;;;19.94;49.07;101435.66;6158239;23;19908;-81
2022/05/30 03:32:28;;;;;;;;;;;;;;;19.94;49.31;101436.53;6132349;23;19979;-81
2022/05/30 03:34:53;;;;;;;;;;;;;;;19.94;49.25;101431.31;6158377;23;19909;-81
2022/05/30 03:37:18;;;;;;;;;;;;;;;19.93;49.12;101434.81;6158428;23;19908;-80
2022/05/30 03:39:43;;;;;;;;;;;;;;;19.94;48.99;101438.28;6131895;23;19921;-80
2022/05/30 03:42:13;;;;;;;;;;;;;;;19.94;49.07;101439.13;6132104;23;19913;-81
2022/05/30 03:44:38;;;;;;;;;;;;;;;19.92;49.17;101437.44;6108214;23;19940;-80
2022/05/30 03:47:04;;;;;;;;;;;;;;;19.93;49.18;101436.56;6132078;23;19909;-80
2022/05/30 03:49:29;;;;;;;;;;;;;;;19.93;49.17;101439.19;6132136;23;19908;-80
2022/05/30 03:51:54;;;;;;;;;;;;;;;19.93;49.20;101436.56;6131991;23;19939;-80
2022/05/30 03:54:22;;;;;;;;;;;;;;;19.94;48.87;101436.53;6131859;23;19913;-80
2022/05/30 03:56:47;;;;;;;;;;;;;;;19.93;48.98;101441.78;6131531;23;19995;-80
2022/05/30 03:59:12;;;;;;;;;;;;;;;19.93;49.09;101432.19;6132409;23;19936;-88
2022/05/30 04:01:38;;;;;;;;;;;;;;;19.94;49.06;101431.31;6132769;23;19919;-87
2022/05/30 04:04:03;;;;;;;;;;;;;;;19.94;49.10;101430.44;6132330;23;19912;-89
2022/05/30 04:06:28;;;;;;;;;;;;;;;19.94;49.02;101428.69;6132502;23;19919;-88
2022/05/30 04:08:54;;;;;;;;;;;;;;;19.96;49.15;101430.44;6107600;23;19919;-87
2022/05/30 04:11:19;;;;;;;;;;;;;;;19.96;48.92;101427.81;6132184;23;19912;-88
2022/05/30 04:13:44;;;;;;;;;;;;;;;19.97;49.07;101427.81;6108094;23;19944;-88
2022/05/30 04:16:10;;;;;;;;;;;;;;;19.97;48.95;101424.31;6109704;23;19912;-88
2022/05/30 04:18:37;;;;;;;;;;;;;;;19.98;49.15;101420.84;6132883;23;19936;-88
2022/05/30 04:21:03;;;;;;;;;;;;;;;19.99;49.28;101422.56;6158352;23;19912;-86
2022/05/30 04:23:28;;;;;;;;;;;;;;;19.99;48.99;101423.44;6107882;23;20245;-88
2022/05/30 04:25:53;;;;;;;;;;;;;;;20.02;48.85;101419.94;6132269;23;19967;-87
2022/05/30 04:28:19;;;;;;;;;;;;;;;20.03;48.87;101424.25;6131956;23;19913;-86
2022/05/30 04:30:44;;;;;;;;;;;;;;;20.04;48.88;101420.78;6159450;23;19913;-87
2022/05/30 04:33:09;;;;;;;;;;;;;;;20.04;48.83;101418.16;6132173;23;19913;-82
2022/05/30 04:35:35;;;;;;;;;;;;;;;20.03;48.95;101419.88;6158287;23;19988;-86
2022/05/30 04:38:00;;;;;;;;;;;;;;;20.05;48.94;101417.28;6131891;23;19912;-84
2022/05/30 04:40:25;;;;;;;;;;;;;;;20.05;48.84;101414.66;6131701;23;20334;-86
2022/05/30 04:42:50;;;;;;;;;;;;;;;20.09;48.56;101422.44;6107356;23;19913;-87
2022/05/30 04:45:16;;;;;;;;;;;;;;;20.14;48.77;101418.06;6107534;23;19940;-86
2022/05/30 04:47:41;;;;;;;;;;;;;;;20.28;48.69;101423.13;6131892;23;19909;-85
2022/05/30 04:50:09;;;;;;;;;;;;;;;20.52;48.26;101427.19;6132448;23;20252;-86
2022/05/30 04:52:34;;;;;;;;;;;;;;;20.79;47.94;101421.66;6131624;23;19908;-86
2022/05/30 04:54:59;;;;;;;;;;;;;;;21.00;47.66;101418.72;6107117;23;19960;-85
2022/05/30 04:57:25;;;;;;;;;;;;;;;21.17;47.56;101424.56;6131460;23;19987;-79
2022/05/30 04:59:50;;;;;;;;;;;;;;;21.30;46.99;101424.41;6157409;23;19917;-78
2022/05/30 05:02:16;;;;;;;;;;;;;;;21.32;46.68;101425.25;6131326;23;19913;-79
2022/05/30 05:04:41;;;;;;;;;;;;;;;21.26;46.30;101422.72;6157348;23;19987;-78
2022/05/30 05:07:07;;;;;;;;;;;;;;;21.29;46.46;101420.03;6131317;23;20273;-78
2022/05/30 05:09:38;;;;;;;;;;;;;;;21.19;46.43;101421.94;6157766;23;19937;-89
2022/05/30 05:12:04;;;;;;;;;;;;;;;21.28;46.28;101419.19;6132478;23;19909;-87
2022/05/30 05:14:29;;;;;;;;;;;;;;;21.46;46.98;101422.41;6107052;23;19991;-88
2022/05/30 05:16:54;;;;;;;;;;;;;;;21.57;46.97;101421.34;6107224;23;19995;-84
2022/05/30 05:19:19;;;;;;;;;;;;;;;21.65;46.51;101428.22;6157374;23;19919;-88
2022/05/30 05:21:48;;;;;;;;;;;;;;;21.73;46.29;101423.69;6107302;23;19916;-87
2022/05/30 05:24:15;;;;;;;;;;;;;;;21.80;46.17;101432.31;6107726;23;19991;-87
2022/05/30 05:26:48;;;;;;;;;;;;;;;21.86;45.98;101440.94;6131389;23;19908;-87
2022/05/30 05:29:15;;;;;;;;;;;;;;;21.93;45.70;101437.31;6131377;23;19960;-88
2022/05/30 05:31:40;;;;;;;;;;;;;;;21.98;45.76;101438.09;6157966;23;19909;-90
2022/05/30 05:34:07;;;;;;;;;;;;;;;22.05;45.43;101435.34;6131630;23;19915;-89
2022/05/30 05:36:34;;;;;;;;;;;;;;;21.95;45.59;101437.28;6131720;23;19916;-88
2022/05/30 05:39:02;;;;;;;;;;;;;;;22.04;45.52;101444.13;6130634;23;19917;-86
2022/05/30 05:41:27;;;;;;;;;;;;;;;22.16;45.24;101444.72;6157663;23;19912;-86
2022/05/30 05:43:54;;;;;;;;;;;;;;;22.03;45.35;101445.00;6157601;23;20237;-84
2022/05/30 05:46:21;;;;;;;;;;;;;;;21.84;45.64;101436.59;6131084;23;20245;-85
2022/05/30 05:48:46;;;;;;;;;;;;;;;21.80;45.50;101438.44;6131447;23;19909;-85
2022/05/30 05:51:13;;;;;;;;;;;;;;;22.19;44.97;101443.84;6157378;23;19996;-84
2022/05/30 05:53:39;;;;;;;;;;;;;;;22.50;44.40;101443.25;6131219;23;19984;-84
2022/05/30 05:56:12;;;;;;;;;;;;;;;22.75;43.64;101435.72;6106958;23;20322;-85
2022/05/30 05:58:37;;;;;;;;;;;;;;;22.90;43.25;101440.63;6131326;23;20278;-84
2022/05/30 06:01:09;;;;;;;;;;;;;;;22.46;43.57;101434.56;6131099;23;19948;-85
2022/05/30 06:03:34;;;;;;;;;;;;;;;22.17;44.25;101443.84;6131170;23;19909;-86
2022/05/30 06:06:00;;;;;;;;;;;;;;;21.89;45.40;101440.03;6107119;23;19913;-86
2022/05/30 06:08:25;;;;;;;;;;;;;;;21.78;45.52;101442.84;6106913;23;19916;-86
2022/05/30 06:11:24;;;;;;;;;;;;;;;21.62;45.65;101441.34;6131847;23;19916;-86
2022/05/30 06:13:43;;;;;;;;;;;;;;;21.50;45.92;101453.75;6133521;23;19913;-85
2022/05/30 06:16:16;;;;;;;;;;;;;;;21.29;45.58;101449.69;6131590;23;19991;-86
2022/05/30 06:18:42;;;;;;;;;;;;;;;21.10;45.54;101449.13;6131028;23;19909;-82
2022/05/30 06:21:07;;;;;;;;;;;;;;;21.03;45.68;101449.22;6131262;23;20288;-82
2022/05/30 06:23:32;;;;;;;;;;;;;;;20.98;45.82;101454.50;6157124;23;19917;-82
2022/05/30 06:26:01;;;;;;;;;;;;;;;20.96;46.03;101454.53;6131044;23;19913;-82
2022/05/30 06:28:26;;;;;;;;;;;;;;;20.94;45.77;101448.44;6130952;23;19936;-82
2022/05/30 06:30:52;;;;;;;;;;;;;;;20.95;46.01;101446.72;6131926;23;19915;-83
2022/05/30 06:33:17;;;;;;;;;;;;;;;21.01;45.96;101453.59;6134368;23;19913;-82
2022/05/30 06:35:44;;;;;;;;;;;;;;;21.05;45.92;101442.22;6134643;23;20372;-84
2022/05/30 06:38:10;;;;;;;;;;;;;;;21.05;46.14;101445.69;6134539;23;19909;-83
2022/05/30 06:40:35;;;;;;;;;;;;;;;21.08;46.00;101447.41;6160650;23;20236;-81
2022/05/30 06:43:00;;;;;;;;;;;;;;;21.26;45.60;101448.88;6134338;23;20322;-82
2022/05/30 06:45:26;;;;;;;;;;;;;;;21.48;45.09;101454.69;6110168;23;19919;-82
2022/05/30 06:47:51;;;;;;;;;;;;;;;21.37;45.19;101450.44;6134186;23;19908;-82
2022/05/30 06:50:17;;;;;;;;;;;;;;;21.20;45.31;101455.06;6134409;23;19935;-82
2022/05/30 06:52:42;;;;;;;;;;;;;;;21.46;45.22;101451.22;6160287;23;19916;-82
2022/05/30 06:55:08;;;;;;;;;;;;;;;21.89;44.31;101450.50;6160516;23;20317;-82
2022/05/30 07:00:17;;;;;;;;;;;;;;;22.54;41.91;101453.66;6137922;23;19924;-80
2022/05/30 07:02:42;;;;;;;;;;;;;;;22.36;42.12;101459.25;6134742;23;19913;-80
2022/05/30 07:05:08;;;;;;;;;;;;;;;21.67;43.62;101465.72;6109463;23;20375;-81
2022/05/30 07:07:33;;;;;;;;;;;;;;;21.34;44.43;101473.19;6160343;23;19931;-81
2022/05/30 07:09:58;;;;;;;;;;;;;;;21.16;44.89;101471.69;6109950;23;19912;-82
2022/05/30 07:12:24;;;;;;;;;;;;;;;21.09;44.93;101472.69;6135790;23;19954;-82
2022/05/30 07:14:49;;;;;;;;;;;;;;;21.03;45.30;101475.38;6136018;23;19917;-82
2022/05/30 07:17:16;;;;;;;;;;;;;;;20.99;45.45;101473.69;6137673;23;19935;-82
2022/05/30 07:19:42;;;;;;;;;;;;;;;20.96;45.71;101477.22;6139315;23;19917;-82
2022/05/30 07:22:08;;;;;;;;;;;;;;;20.93;45.67;101479.88;6112191;23;19915;-83
2022/05/30 07:24:34;;;;;;;;;;;;;;;20.89;46.02;101481.66;6160467;23;19915;-85
2022/05/30 07:26:59;;;;;;;;;;;;;;;20.87;46.11;101483.44;6160906;23;19909;-83
2022/05/30 07:29:26;;;;;;;;;;;;;;;20.89;45.81;101481.66;6134439;23;19970;-83
2022/05/30 07:31:55;;;;;;;;;;;;;;;20.92;45.77;101486.00;6134788;23;19912;-83
2022/05/30 07:34:21;;;;;;;;;;;;;;;20.93;45.66;101491.22;6134252;23;20352;-83
2022/05/30 07:36:46;;;;;;;;;;;;;;;20.91;45.74;101479.03;6133920;23;19913;-83
2022/05/30 07:39:11;;;;;;;;;;;;;;;20.89;45.79;101479.06;6109192;23;19936;-82
2022/05/30 07:41:38;;;;;;;;;;;;;;;20.89;45.75;101483.44;6109411;23;19916;-82
2022/05/30 07:44:03;;;;;;;;;;;;;;;20.88;45.77;101477.34;6132394;23;19959;-82
2022/05/30 07:46:29;;;;;;;;;;;;;;;20.87;45.88;101486.06;6132522;23;19995;-83
2022/05/30 07:48:54;;;;;;;;;;;;;;;20.88;45.95;101486.91;6132501;23;20313;-82
2022/05/30 07:51:19;;;;;;;;;;;;;;;20.88;45.88;101484.28;6158398;23;19909;-81
2022/05/30 07:53:45;;;;;;;;;;;;;;;20.88;45.85;101484.28;6132774;23;19916;-82
2022/05/30 07:56:12;;;;;;;;;;;;;;;20.86;45.93;101475.59;6108035;23;19947;-83
2022/05/30 07:58:38;;;;;;;;;;;;;;;20.84;45.78;101480.88;6158663;23;19909;-83
2022/05/30 08:01:04;;;;;;;;;;;;;;;20.83;45.77;101481.75;6132526;23;20267;-81
2022/05/30 08:03:30;;;;;;;;;;;;;;;20.81;45.99;101483.50;6132253;23;19908;-82
2022/05/30 08:06:06;;;;;;;;;;;;;;;20.81;45.95;101482.66;6158164;23;19916;-83
2022/05/30 08:08:31;;;;;;;;;;;;;;;20.80;45.96;101475.72;6133006;23;19947;-83
2022/05/30 08:10:56;;;;;;;;;;;;;;;20.79;45.95;101473.97;6132130;23;19909;-83
2022/05/30 08:13:22;;;;;;;;;;;;;;;20.79;46.03;101479.19;6108133;23;19952;-82
2022/05/30 08:15:47;;;;;;;;;;;;;;;20.79;45.89;101484.41;6132779;23;19908;-83
2022/05/30 08:18:17;;;;;;;;;;;;;;;20.78;45.94;101482.72;6108016;23;19912;-83
2022/05/30 08:20:43;;;;;;;;;;;;;;;20.79;46.01;101484.41;6158440;23;19920;-83
2022/05/30 08:23:08;;;;;;;;;;;;;;;20.78;46.04;101483.56;6158597;23;19909;-81
2022/05/30 08:25:33;;;;;;;;;;;;;;;20.77;45.95;101475.72;6132025;23;19963;-83
2022/05/30 08:27:59;;;;;;;;;;;;;;;20.78;45.98;101477.47;6132348;23;19963;-82
2022/05/30 08:30:24;;;;;;;;;;;;;;;20.79;45.94;101482.66;6107541;23;20349;-82
2022/05/30 08:32:49;;;;;;;;;;;;;;;20.80;46.00;101487.03;6132598;23;19908;-82
2022/05/30 08:35:17;;;;;;;;;;;;;;;20.80;46.05;101480.94;6158217;23;19935;-81
2022/05/30 08:37:43;;;;;;;;;;;;;;;20.79;46.12;101480.06;6158248;23;19908;-83
2022/05/30 08:42:55;;;;;;;;;;;;;;;20.85;45.94;101485.22;6158018;23;19915;-82
2022/05/30 08:45:22;;;;;;;;;;;;;;;20.87;45.96;101490.44;6158183;23;19967;-83
2022/05/30 08:47:49;;;;;;;;;;;;;;;20.84;46.09;101482.59;6131908;23;19909;-82
2022/05/30 08:50:35;;;;;;;;;;;;;;;20.83;46.09;101483.50;6131798;23;19916;-82
2022/05/30 08:53:19;;;;;;;;;;;;;;;20.84;46.28;101491.34;6131787;23;19908;-83
2022/05/30 08:55:51;;;;;;;;;;;;;;;20.85;46.27;101489.59;6158100;23;19916;-84
2022/05/30 08:58:29;;;;;;;;;;;;;;;20.86;46.26;101489.56;6131508;23;20388;-84
2022/05/30 09:01:00;;;;;;;;;;;;;;;20.90;45.95;101488.63;6131619;23;19912;-84
2022/05/30 09:03:32;;;;;;;;;;;;;;;20.91;46.18;101492.13;6131528;23;20379;-83
2022/05/30 09:06:01;;;;;;;;;;;;;;;20.90;46.04;101482.53;6131642;23;20340;-83
2022/05/30 09:08:37;;;;;;;;;;;;;;;20.91;46.13;101495.59;6131746;23;19936;-83
2022/05/30 09:11:05;;;;;;;;;;;;;;;20.94;46.13;101492.06;6131785;23;20033;-83
2022/05/30 09:13:37;;;;;;;;;;;;;;;20.97;46.00;101484.19;6157738;23;19912;-81
2022/05/30 09:16:23;;;;;;;;;;;;;;;21.02;45.82;101481.53;6131658;23;19932;-84
2022/05/30 09:18:50;;;;;;;;;;;;;;;21.03;45.86;101485.84;6158033;23;20241;-83
2022/05/30 09:21:17;;;;;;;;;;;;;;;21.02;45.53;101477.13;6131397;23;19955;-82
2022/05/30 09:23:42;;;;;;;;;;;;;;;21.03;45.78;101480.63;6107143;23;20234;-83
2022/05/30 09:26:11;;;;;;;;;;;;;;;21.00;45.67;101489.38;6131778;23;20035;-84
2022/05/30 09:28:40;;;;;;;;;;;;;;;20.96;45.91;101485.94;6131206;23;19909;-84
2022/05/30 09:31:13;;;;;;;;;;;;;;;20.93;45.99;101485.13;6157440;23;19908;-84
2022/05/30 09:33:40;;;;;;;;;;;;;;;20.90;45.88;101495.59;6157550;23;19909;-84
2022/05/30 09:36:25;;;;;;;;;;;;;;;20.89;46.21;101496.50;6131207;23;20306;-84
2022/05/30 09:39:14;;;;;;;;;;;;;;;20.88;46.17;101497.38;6131434;23;19959;-83
2022/05/30 09:41:39;;;;;;;;;;;;;;;20.88;45.92;101502.59;6131371;23;19912;-83
2022/05/30 09:44:25;;;;;;;;;;;;;;;20.89;45.80;101499.13;6131479;23;20341;-84
2022/05/30 09:47:05;;;;;;;;;;;;;;;20.88;45.82;101503.50;6157218;23;19959;-83
2022/05/30 09:49:36;;;;;;;;;;;;;;;20.88;45.79;101513.06;6132358;23;19908;-82
2022/05/30 09:52:19;;;;;;;;;;;;;;;20.87;45.63;101500.91;6131387;23;19916;-84
2022/05/30 09:54:44;;;;;;;;;;;;;;;20.86;45.77;101509.59;6131290;23;20255;-84
2022/05/30 09:57:10;;;;;;;;;;;;;;;20.85;45.81;101508.75;6130925;23;19952;-82
2022/05/30 09:59:37;;;;;;;;;;;;;;;20.85;45.53;101507.88;6157350;23;19921;-84
2022/05/30 10:02:03;;;;;;;;;;;;;;;20.84;45.41;101514.88;6131310;23;19915;-84
2022/05/30 10:04:28;;;;;;;;;;;;;;;20.84;45.75;101514.88;6131642;23;19979;-83
2022/05/30 10:07:05;;;;;;;;;;;;;;;20.83;45.70;101513.13;6156813;23;19916;-84
2022/05/30 10:09:33;;;;;;;;;;;;;;;20.83;45.31;101512.28;6131348;23;19961;-84
2022/05/30 10:11:59;;;;;;;;;;;;;;;20.83;45.67;101510.53;6131304;23;20285;-83
2022/05/30 10:14:27;;;;;;;;;;;;;;;20.82;45.69;101511.41;6157309;23;19916;-85
2022/05/30 10:16:55;;;;;;;;;;;;;;;20.83;45.58;101509.66;6131349;23;19963;-84
2022/05/30 10:19:26;;;;;;;;;;;;;;;20.83;45.65;101512.28;6157127;23;19909;-84
2022/05/30 10:28:15;;;;;;;;;;;;;;;20.86;45.45;101510.50;6157294;23;20293;-84
2022/05/30 10:30:59;;;;;;;;;;;;;;;20.88;45.43;101520.91;6131103;23;19908;-84
2022/05/30 10:33:48;;;;;;;;;;;;;;;20.91;45.57;101520.91;6157997;23;20872;-84
2022/05/30 10:36:18;;;;;;;;;;;;;;;20.93;45.51;101520.00;6123337;23;19908;-84
2022/05/30 10:39:02;;;;;;;;;;;;;;;20.95;45.46;101527.84;6130875;23;19955;-84
2022/05/30 10:41:51;;;;;;;;;;;;;;;20.96;45.61;101529.56;6130750;23;19920;-83
2022/05/30 10:44:26;;;;;;;;;;;;;;;20.96;45.68;101526.94;6157171;23;20329;-84
2022/05/30 10:46:58;;;;;;;;;;;;;;;20.97;45.74;101531.28;6131386;23;19951;-83
2022/05/30 10:49:26;;;;;;;;;;;;;;;20.94;45.79;101534.78;6130961;23;19908;-83
2022/05/30 10:51:58;;;;;;;;;;;;;;;20.93;45.81;101527.84;6130133;23;19909;-84
2022/05/30 10:54:37;;;;;;;;;;;;;;;20.94;45.79;101526.09;6156897;23;20371;-84
2022/05/30 10:57:29;;;;;;;;;;;;;;;20.93;45.75;101530.47;6157024;23;19983;-84
2022/05/30 10:59:57;;;;;;;;;;;;;;;20.92;45.88;101538.31;6133330;23;20321;-82
2022/05/30 11:02:23;;;;;;;;;;;;;;;20.93;45.78;101532.22;6157009;23;19908;-84
2022/05/30 11:05:17;;;;;;;;;;;;;;;;;;;;;
2022/05/30 11:10:18;;;;;;;;;;;;;;;20.91;45.78;101524.38;6143920;23;19921;-78
2022/05/30 11:12:46;;;;;;;;;;;;;;;20.91;45.92;101531.38;6136275;23;19909;-79
2022/05/30 11:20:24;;;;;;;;;;;;;;;20.89;45.78;101531.38;6126757;23;19908;-82
2022/05/30 11:28:26;;;;;;;;;;;;;;;20.89;45.88;101533.13;6149073;23;19928;-83
2022/05/30 11:38:59;;;;;;;;;;;;;;;20.97;45.47;101531.28;6172720;23;19919;-81
2022/05/30 11:49:25;;;;;;;;;;;;;;;20.92;45.74;101538.31;6162153;23;19943;-83
2022/05/30 11:51:54;;;;;;;;;;;;;;;20.93;45.75;101530.47;6159481;23;19906;-83
2022/05/30 11:54:34;;;;;;;;;;;;;;;20.93;45.67;101537.44;6160173;23;19901;-83
2022/05/30 11:57:06;;;;;;;;;;;;;;;20.94;45.84;101528.69;6159937;23;19900;-82
2022/05/30 11:59:48;;;;;;;;;;;;;;;20.94;45.85;101532.19;6143342;23;19943;-82
2022/05/30 12:02:17;;;;;;;;;;;;;;;20.94;45.76;101537.41;6159902;23;19912;-83
2022/05/30 12:10:09;;;;;;;;;;;;;;;20.92;45.79;101533.94;6152391;23;19927;-83
2022/05/30 12:44:43;;;;;;;;;;;;;;;20.88;44.91;101536.63;6134513;23;19999;-78
2022/05/30 12:47:09;;;;;;;;;;;;;;;20.89;44.88;101540.97;6142818;23;19917;-77
2022/05/30 12:49:36;;;;;;;;;;;;;;;20.88;44.84;101529.66;6140909;23;19942;-77
2022/05/30 12:52:17;;;;;;;;;;;;;;;20.90;44.84;101530.47;6142259;23;19929;-77
2022/05/30 12:55:00;;;;;;;;;;;;;;;20.92;44.77;101530.47;6137611;23;20317;-78
2022/05/30 12:57:45;;;;;;;;;;;;;;;20.95;44.76;101525.22;6139068;23;19912;-78
2022/05/30 13:00:36;;;;;;;;;;;;;;;20.95;44.82;101515.59;6163324;23;19919;-78
2022/05/30 13:03:11;;;;;;;;;;;;;;;20.98;44.75;101525.16;6139880;23;20058;-78
2022/05/30 13:05:38;;;;;;;;;;;;;;;20.98;44.72;101525.16;6140636;23;19931;-78
2022/05/30 13:08:22;;;;;;;;;;;;;;;21.00;44.77;101520.78;6141661;23;19909;-78
2022/05/30 13:10:50;;;;;;;;;;;;;;;21.00;44.91;101526.00;6138908;23;20375;-78
2022/05/30 13:13:19;;;;;;;;;;;;;;;21.02;44.53;101518.16;6141132;23;19988;-78
2022/05/30 13:15:54;;;;;;;;;;;;;;;21.00;44.47;101522.53;6140842;23;19909;-78
2022/05/30 13:18:22;;;;;;;;;;;;;;;20.99;44.78;101526.91;6140108;23;19909;-78
2022/05/30 13:20:52;;;;;;;;;;;;;;;20.99;44.59;101519.06;6141971;23;19919;-79
2022/05/30 13:23:32;;;;;;;;;;;;;;;20.99;44.52;101518.16;6171298;23;19987;-77
2022/05/30 13:25:58;;;;;;;;;;;;;;;21.00;44.22;101514.69;6144314;23;19912;-79
2022/05/30 13:28:27;;;;;;;;;;;;;;;21.01;44.32;101516.41;6145153;23;19913;-78
2022/05/30 13:30:53;;;;;;;;;;;;;;;21.00;44.14;101514.69;6141347;23;19991;-78
2022/05/30 13:33:31;;;;;;;;;;;;;;;20.99;44.27;101511.22;6115755;23;19917;-78
2022/05/30 13:35:58;;;;;;;;;;;;;;;21.00;44.30;101515.53;6164246;23;19908;-79
2022/05/30 13:38:31;;;;;;;;;;;;;;;21.01;44.11;101512.03;6162892;23;19909;-78
2022/05/30 13:40:57;;;;;;;;;;;;;;;21.03;44.14;101517.25;6138353;23;19913;-78
2022/05/30 13:43:32;;;;;;;;;;;;;;;21.07;43.99;101509.34;6139049;23;19983;-78
2022/05/30 13:45:58;;;;;;;;;;;;;;;21.09;44.09;101522.41;6138874;23;20285;-78
2022/05/30 13:48:23;;;;;;;;;;;;;;;21.10;43.99;101514.53;6109475;23;19920;-78
2022/05/30 13:50:50;;;;;;;;;;;;;;;21.09;43.99;101520.66;6108836;23;19916;-78
2022/05/30 13:53:18;;;;;;;;;;;;;;;21.11;44.23;101512.78;6133279;23;19909;-78
2022/05/30 13:55:52;;;;;;;;;;;;;;;21.11;44.29;101521.50;6135816;23;19909;-78
2022/05/30 13:58:17;;;;;;;;;;;;;;;21.10;44.40;101517.16;6162599;23;19915;-78
2022/05/30 14:00:43;;;;;;;;;;;;;;;21.08;44.44;101511.09;6135556;23;20306;-80
2022/05/30 14:03:09;;;;;;;;;;;;;;;21.07;44.60;101513.72;6135349;23;19916;-79
2022/05/30 14:05:36;;;;;;;;;;;;;;;21.05;44.76;101511.09;6110974;23;20321;-79
2022/05/30 14:08:03;;;;;;;;;;;;;;;21.05;44.44;101510.25;6137141;23;19932;-79
2022/05/30 14:10:29;;;;;;;;;;;;;;;21.04;44.84;101513.75;6138323;23;19908;-78